sensor_id;sensor_type;location;lat;lon;timestamp;temperature;humidity
24226;DHT22;51462;51.422;5.514;2023-04-19T00:00:03;12.60;99.90
24226;DHT22;51462;51.422;5.514;2023-04-19T00:02:32;12.60;99.90
24226;DHT22;51462;51.422;5.514;2023-04-19T00:04:58;12.60;99.90
24226;DHT22;51462;51.422;5.514;2023-04-19T00:07:23;12.50;99.90
24226;DHT22;51462;51.422;5.514;2023-04-19T00:09:49;12.60;99.90
24226;DHT22;51462;51.422;5.514;2023-04-19T00:12:15;12.60;99.90
24226;DHT22;51462;51.422;5.514;2023-04-19T00:14:40;12.60;99.90
24226;DHT22;51462;51.422;5.514;2023-04-19T00:17:06;12.60;99.90
24226;DHT22;51462;51.422;5.514;2023-04-19T00:19:31;12.50;99.90
24226;DHT22;51462;51.422;5.514;2023-04-19T00:21:57;12.40;99.90
24226;DHT22;51462;51.422;5.514;2023-04-19T00:24:23;12.60;99.90
24226;DHT22;51462;51.422;5.514;2023-04-19T00:26:48;12.50;99.90
24226;DHT22;51462;51.422;5.514;2023-04-19T00:29:14;12.30;99.90
24226;DHT22;51462;51.422;5.514;2023-04-19T00:31:39;12.30;99.90
24226;DHT22;51462;51.422;5.514;2023-04-19T00:34:05;12.50;99.90
24226;DHT22;51462;51.422;5.514;2023-04-19T00:36:31;12.50;99.90
24226;DHT22;51462;51.422;5.514;2023-04-19T00:38:56;12.40;99.90
24226;DHT22;51462;51.422;5.514;2023-04-19T00:41:22;12.30;99.90
24226;DHT22;51462;51.422;5.514;2023-04-19T00:43:47;12.40;99.90
24226;DHT22;51462;51.422;5.514;2023-04-19T00:46:13;12.40;99.90
24226;DHT22;51462;51.422;5.514;2023-04-19T00:48:40;12.50;99.90
24226;DHT22;51462;51.422;5.514;2023-04-19T00:51:06;12.40;99.90
24226;DHT22;51462;51.422;5.514;2023-04-19T00:53:32;12.40;99.90
24226;DHT22;51462;51.422;5.514;2023-04-19T00:56:01;12.50;99.90
24226;DHT22;51462;51.422;5.514;2023-04-19T00:58:28;12.50;99.90
24226;DHT22;51462;51.422;5.514;2023-04-19T01:00:55;12.40;99.90
24226;DHT22;51462;51.422;5.514;2023-04-19T01:03:21;12.40;99.90
24226;DHT22;51462;51.422;5.514;2023-04-19T01:05:47;12.40;99.90
24226;DHT22;51462;51.422;5.514;2023-04-19T01:08:13;12.30;99.90
24226;DHT22;51462;51.422;5.514;2023-04-19T01:10:38;12.60;99.90
24226;DHT22;51462;51.422;5.514;2023-04-19T01:13:04;12.50;99.90
24226;DHT22;51462;51.422;5.514;2023-04-19T01:15:30;12.40;99.90
24226;DHT22;51462;51.422;5.514;2023-04-19T01:17:56;12.40;99.90
24226;DHT22;51462;51.422;5.514;2023-04-19T01:20:22;12.50;99.90
24226;DHT22;51462;51.422;5.514;2023-04-19T01:22:47;12.50;99.90
24226;DHT22;51462;51.422;5.514;2023-04-19T01:25:13;12.50;99.90
24226;DHT22;51462;51.422;5.514;2023-04-19T01:27:38;12.50;99.90
24226;DHT22;51462;51.422;5.514;2023-04-19T01:30:04;12.50;99.90
24226;DHT22;51462;51.422;5.514;2023-04-19T01:32:30;12.50;99.90
24226;DHT22;51462;51.422;5.514;2023-04-19T01:34:56;12.40;99.90
24226;DHT22;51462;51.422;5.514;2023-04-19T01:37:22;12.40;99.90
24226;DHT22;51462;51.422;5.514;2023-04-19T01:39:47;12.50;99.90
24226;DHT22;51462;51.422;5.514;2023-04-19T01:42:13;12.40;99.90
24226;DHT22;51462;51.422;5.514;2023-04-19T01:44:38;12.40;99.90
24226;DHT22;51462;51.422;5.514;2023-04-19T01:47:04;12.40;99.90
24226;DHT22;51462;51.422;5.514;2023-04-19T01:49:30;12.40;99.90
24226;DHT22;51462;51.422;5.514;2023-04-19T01:51:55;12.40;99.90
24226;DHT22;51462;51.422;5.514;2023-04-19T01:54:21;12.20;99.90
24226;DHT22;51462;51.422;5.514;2023-04-19T01:56:46;12.20;99.90
24226;DHT22;51462;51.422;5.514;2023-04-19T01:59:12;12.20;99.90
24226;DHT22;51462;51.422;5.514;2023-04-19T02:01:37;12.20;99.90
24226;DHT22;51462;51.422;5.514;2023-04-19T02:04:03;12.40;99.90
24226;DHT22;51462;51.422;5.514;2023-04-19T02:06:28;12.40;99.90
24226;DHT22;51462;51.422;5.514;2023-04-19T02:08:54;12.30;99.90
24226;DHT22;51462;51.422;5.514;2023-04-19T02:11:20;12.20;99.90
24226;DHT22;51462;51.422;5.514;2023-04-19T02:13:45;12.30;99.90
24226;DHT22;51462;51.422;5.514;2023-04-19T02:16:12;12.30;99.90
24226;DHT22;51462;51.422;5.514;2023-04-19T02:18:37;12.50;99.90
24226;DHT22;51462;51.422;5.514;2023-04-19T02:21:04;12.50;99.90
24226;DHT22;51462;51.422;5.514;2023-04-19T02:23:30;12.50;99.90
24226;DHT22;51462;51.422;5.514;2023-04-19T02:25:56;12.40;99.90
24226;DHT22;51462;51.422;5.514;2023-04-19T02:28:21;12.30;99.90
24226;DHT22;51462;51.422;5.514;2023-04-19T02:30:47;12.40;99.90
24226;DHT22;51462;51.422;5.514;2023-04-19T02:33:14;12.40;99.90
24226;DHT22;51462;51.422;5.514;2023-04-19T02:35:39;12.20;99.90
24226;DHT22;51462;51.422;5.514;2023-04-19T02:38:05;12.30;99.90
24226;DHT22;51462;51.422;5.514;2023-04-19T02:40:31;12.10;99.90
24226;DHT22;51462;51.422;5.514;2023-04-19T02:42:56;12.20;99.90
24226;DHT22;51462;51.422;5.514;2023-04-19T02:45:22;12.30;99.90
24226;DHT22;51462;51.422;5.514;2023-04-19T02:47:47;12.30;99.90
24226;DHT22;51462;51.422;5.514;2023-04-19T02:50:15;12.20;99.90
24226;DHT22;51462;51.422;5.514;2023-04-19T02:52:41;12.20;99.90
24226;DHT22;51462;51.422;5.514;2023-04-19T02:55:06;12.10;99.90
24226;DHT22;51462;51.422;5.514;2023-04-19T02:57:32;12.10;99.90
24226;DHT22;51462;51.422;5.514;2023-04-19T02:59:58;12.00;99.90
24226;DHT22;51462;51.422;5.514;2023-04-19T03:02:24;12.20;99.90
24226;DHT22;51462;51.422;5.514;2023-04-19T03:04:50;12.40;99.90
24226;DHT22;51462;51.422;5.514;2023-04-19T03:07:15;12.30;99.90
24226;DHT22;51462;51.422;5.514;2023-04-19T03:09:41;12.30;99.90
24226;DHT22;51462;51.422;5.514;2023-04-19T03:12:07;12.30;99.90
24226;DHT22;51462;51.422;5.514;2023-04-19T03:14:33;12.30;99.90
24226;DHT22;51462;51.422;5.514;2023-04-19T03:16:58;12.20;99.90
24226;DHT22;51462;51.422;5.514;2023-04-19T03:19:24;12.10;99.90
24226;DHT22;51462;51.422;5.514;2023-04-19T03:21:50;11.90;99.90
24226;DHT22;51462;51.422;5.514;2023-04-19T03:24:17;11.90;99.90
24226;DHT22;51462;51.422;5.514;2023-04-19T03:26:43;12.00;99.90
24226;DHT22;51462;51.422;5.514;2023-04-19T03:29:09;12.10;99.90
24226;DHT22;51462;51.422;5.514;2023-04-19T03:31:35;12.10;99.90
24226;DHT22;51462;51.422;5.514;2023-04-19T03:34:01;12.10;99.90
24226;DHT22;51462;51.422;5.514;2023-04-19T03:36:26;12.10;99.90
24226;DHT22;51462;51.422;5.514;2023-04-19T03:38:52;12.20;99.90
24226;DHT22;51462;51.422;5.514;2023-04-19T03:41:25;12.10;99.90
24226;DHT22;51462;51.422;5.514;2023-04-19T03:43:51;12.00;99.90
24226;DHT22;51462;51.422;5.514;2023-04-19T03:46:16;12.00;99.90
24226;DHT22;51462;51.422;5.514;2023-04-19T03:48:42;12.10;99.90
24226;DHT22;51462;51.422;5.514;2023-04-19T03:51:08;12.00;99.90
24226;DHT22;51462;51.422;5.514;2023-04-19T03:53:34;12.00;99.90
24226;DHT22;51462;51.422;5.514;2023-04-19T03:56:00;11.90;99.90
24226;DHT22;51462;51.422;5.514;2023-04-19T03:58:25;12.00;99.90
24226;DHT22;51462;51.422;5.514;2023-04-19T04:00:51;12.20;99.90
24226;DHT22;51462;51.422;5.514;2023-04-19T04:03:18;12.00;99.90
24226;DHT22;51462;51.422;5.514;2023-04-19T04:05:43;11.90;99.90
24226;DHT22;51462;51.422;5.514;2023-04-19T04:08:09;12.00;99.90
24226;DHT22;51462;51.422;5.514;2023-04-19T04:10:34;12.00;99.90
24226;DHT22;51462;51.422;5.514;2023-04-19T04:13:00;11.90;99.90
24226;DHT22;51462;51.422;5.514;2023-04-19T04:15:26;11.90;99.90
24226;DHT22;51462;51.422;5.514;2023-04-19T04:17:51;11.90;99.90
24226;DHT22;51462;51.422;5.514;2023-04-19T04:20:17;12.00;99.90
24226;DHT22;51462;51.422;5.514;2023-04-19T04:22:43;12.00;99.90
24226;DHT22;51462;51.422;5.514;2023-04-19T04:25:10;12.10;99.90
24226;DHT22;51462;51.422;5.514;2023-04-19T04:27:37;12.20;99.90
24226;DHT22;51462;51.422;5.514;2023-04-19T04:30:04;12.00;99.90
24226;DHT22;51462;51.422;5.514;2023-04-19T04:32:31;11.80;99.90
24226;DHT22;51462;51.422;5.514;2023-04-19T04:35:00;11.80;99.90
24226;DHT22;51462;51.422;5.514;2023-04-19T04:37:26;11.90;99.90
24226;DHT22;51462;51.422;5.514;2023-04-19T04:39:51;11.90;99.90
24226;DHT22;51462;51.422;5.514;2023-04-19T04:42:17;11.90;99.90
24226;DHT22;51462;51.422;5.514;2023-04-19T04:44:46;11.90;99.90
24226;DHT22;51462;51.422;5.514;2023-04-19T04:47:14;12.00;99.90
24226;DHT22;51462;51.422;5.514;2023-04-19T04:49:40;12.00;99.90
24226;DHT22;51462;51.422;5.514;2023-04-19T04:52:05;12.00;99.90
24226;DHT22;51462;51.422;5.514;2023-04-19T04:54:33;11.90;99.90
24226;DHT22;51462;51.422;5.514;2023-04-19T04:56:58;11.90;99.90
24226;DHT22;51462;51.422;5.514;2023-04-19T04:59:25;11.90;99.90
24226;DHT22;51462;51.422;5.514;2023-04-19T05:01:51;11.80;99.90
24226;DHT22;51462;51.422;5.514;2023-04-19T05:04:17;11.80;99.90
24226;DHT22;51462;51.422;5.514;2023-04-19T05:06:42;11.90;99.90
24226;DHT22;51462;51.422;5.514;2023-04-19T05:09:09;11.80;99.90
24226;DHT22;51462;51.422;5.514;2023-04-19T05:11:35;11.80;99.90
24226;DHT22;51462;51.422;5.514;2023-04-19T05:14:01;11.90;99.90
24226;DHT22;51462;51.422;5.514;2023-04-19T05:16:26;11.90;99.90
24226;DHT22;51462;51.422;5.514;2023-04-19T05:18:52;12.00;99.90
24226;DHT22;51462;51.422;5.514;2023-04-19T05:21:18;12.00;99.90
24226;DHT22;51462;51.422;5.514;2023-04-19T05:23:43;12.10;99.90
24226;DHT22;51462;51.422;5.514;2023-04-19T05:26:09;11.90;99.90
24226;DHT22;51462;51.422;5.514;2023-04-19T05:28:40;11.90;99.90
24226;DHT22;51462;51.422;5.514;2023-04-19T05:31:07;11.80;99.90
24226;DHT22;51462;51.422;5.514;2023-04-19T05:33:33;11.90;99.90
24226;DHT22;51462;51.422;5.514;2023-04-19T05:35:58;12.00;99.90
24226;DHT22;51462;51.422;5.514;2023-04-19T05:38:24;11.80;99.90
24226;DHT22;51462;51.422;5.514;2023-04-19T05:40:49;11.70;99.90
24226;DHT22;51462;51.422;5.514;2023-04-19T05:43:15;11.80;99.90
24226;DHT22;51462;51.422;5.514;2023-04-19T05:45:41;11.70;99.90
24226;DHT22;51462;51.422;5.514;2023-04-19T05:48:06;12.00;99.90
24226;DHT22;51462;51.422;5.514;2023-04-19T05:50:32;11.80;99.90
24226;DHT22;51462;51.422;5.514;2023-04-19T05:52:57;11.80;99.90
24226;DHT22;51462;51.422;5.514;2023-04-19T05:55:23;11.60;99.90
24226;DHT22;51462;51.422;5.514;2023-04-19T05:57:49;11.80;99.90
24226;DHT22;51462;51.422;5.514;2023-04-19T06:00:15;11.90;99.90
24226;DHT22;51462;51.422;5.514;2023-04-19T06:02:40;11.70;99.90
24226;DHT22;51462;51.422;5.514;2023-04-19T06:05:08;11.80;99.90
24226;DHT22;51462;51.422;5.514;2023-04-19T06:07:34;11.90;99.90
24226;DHT22;51462;51.422;5.514;2023-04-19T06:09:59;11.90;99.90
24226;DHT22;51462;51.422;5.514;2023-04-19T06:12:25;11.90;99.90
24226;DHT22;51462;51.422;5.514;2023-04-19T06:14:51;11.80;99.90
24226;DHT22;51462;51.422;5.514;2023-04-19T06:17:17;11.70;99.90
24226;DHT22;51462;51.422;5.514;2023-04-19T06:19:47;11.80;99.90
24226;DHT22;51462;51.422;5.514;2023-04-19T06:22:13;11.80;99.90
24226;DHT22;51462;51.422;5.514;2023-04-19T06:24:38;11.80;99.90
24226;DHT22;51462;51.422;5.514;2023-04-19T06:27:04;11.80;99.90
24226;DHT22;51462;51.422;5.514;2023-04-19T06:29:30;11.70;99.90
24226;DHT22;51462;51.422;5.514;2023-04-19T06:31:55;11.60;99.90
24226;DHT22;51462;51.422;5.514;2023-04-19T06:34:21;11.70;99.90
24226;DHT22;51462;51.422;5.514;2023-04-19T06:36:46;11.40;99.90
24226;DHT22;51462;51.422;5.514;2023-04-19T06:39:13;11.50;99.90
24226;DHT22;51462;51.422;5.514;2023-04-19T06:41:38;11.80;99.90
24226;DHT22;51462;51.422;5.514;2023-04-19T06:44:04;11.70;99.90
24226;DHT22;51462;51.422;5.514;2023-04-19T06:46:30;11.80;99.90
24226;DHT22;51462;51.422;5.514;2023-04-19T06:48:55;11.80;99.90
24226;DHT22;51462;51.422;5.514;2023-04-19T06:51:21;11.80;99.90
24226;DHT22;51462;51.422;5.514;2023-04-19T06:53:47;11.90;99.90
24226;DHT22;51462;51.422;5.514;2023-04-19T06:56:13;11.90;99.90
24226;DHT22;51462;51.422;5.514;2023-04-19T06:58:38;12.10;99.90
24226;DHT22;51462;51.422;5.514;2023-04-19T07:01:04;11.90;99.90
24226;DHT22;51462;51.422;5.514;2023-04-19T07:03:30;11.90;99.90
24226;DHT22;51462;51.422;5.514;2023-04-19T07:05:56;11.90;99.90
24226;DHT22;51462;51.422;5.514;2023-04-19T07:08:23;11.90;99.90
24226;DHT22;51462;51.422;5.514;2023-04-19T07:10:48;12.10;99.90
24226;DHT22;51462;51.422;5.514;2023-04-19T07:13:14;12.10;99.90
24226;DHT22;51462;51.422;5.514;2023-04-19T07:15:39;12.10;99.90
24226;DHT22;51462;51.422;5.514;2023-04-19T07:18:05;12.10;99.90
24226;DHT22;51462;51.422;5.514;2023-04-19T07:20:31;12.30;99.90
24226;DHT22;51462;51.422;5.514;2023-04-19T07:22:57;12.20;99.90
24226;DHT22;51462;51.422;5.514;2023-04-19T07:25:23;12.10;99.90
24226;DHT22;51462;51.422;5.514;2023-04-19T07:27:48;12.20;99.90
24226;DHT22;51462;51.422;5.514;2023-04-19T07:30:14;12.20;99.90
24226;DHT22;51462;51.422;5.514;2023-04-19T07:32:40;12.20;99.90
24226;DHT22;51462;51.422;5.514;2023-04-19T07:35:05;12.30;99.90
24226;DHT22;51462;51.422;5.514;2023-04-19T07:37:31;12.30;99.90
24226;DHT22;51462;51.422;5.514;2023-04-19T07:39:57;12.30;99.90
24226;DHT22;51462;51.422;5.514;2023-04-19T07:42:23;12.20;99.90
24226;DHT22;51462;51.422;5.514;2023-04-19T07:44:49;12.30;99.90
24226;DHT22;51462;51.422;5.514;2023-04-19T07:47:14;12.40;99.90
24226;DHT22;51462;51.422;5.514;2023-04-19T07:49:40;12.50;99.90
24226;DHT22;51462;51.422;5.514;2023-04-19T07:52:08;12.40;99.90
24226;DHT22;51462;51.422;5.514;2023-04-19T07:54:34;12.40;99.90
24226;DHT22;51462;51.422;5.514;2023-04-19T07:57:00;12.50;99.90
24226;DHT22;51462;51.422;5.514;2023-04-19T07:59:26;12.40;99.90
24226;DHT22;51462;51.422;5.514;2023-04-19T08:01:52;12.40;99.90
24226;DHT22;51462;51.422;5.514;2023-04-19T08:04:17;12.60;99.90
24226;DHT22;51462;51.422;5.514;2023-04-19T08:06:44;12.70;99.90
24226;DHT22;51462;51.422;5.514;2023-04-19T08:09:10;12.80;99.90
24226;DHT22;51462;51.422;5.514;2023-04-19T08:11:35;12.80;99.90
24226;DHT22;51462;51.422;5.514;2023-04-19T08:14:01;12.80;99.90
24226;DHT22;51462;51.422;5.514;2023-04-19T08:16:27;12.80;99.90
24226;DHT22;51462;51.422;5.514;2023-04-19T08:18:54;12.80;99.90
24226;DHT22;51462;51.422;5.514;2023-04-19T08:21:20;12.70;99.90
24226;DHT22;51462;51.422;5.514;2023-04-19T08:23:45;12.80;99.90
24226;DHT22;51462;51.422;5.514;2023-04-19T08:26:11;12.90;99.90
24226;DHT22;51462;51.422;5.514;2023-04-19T08:28:37;13.10;99.90
24226;DHT22;51462;51.422;5.514;2023-04-19T08:31:05;13.10;99.90
24226;DHT22;51462;51.422;5.514;2023-04-19T08:33:32;13.10;99.90
24226;DHT22;51462;51.422;5.514;2023-04-19T08:35:57;13.10;99.90
24226;DHT22;51462;51.422;5.514;2023-04-19T08:38:23;13.10;99.90
24226;DHT22;51462;51.422;5.514;2023-04-19T08:40:52;13.10;99.90
24226;DHT22;51462;51.422;5.514;2023-04-19T08:43:18;13.10;99.90
24226;DHT22;51462;51.422;5.514;2023-04-19T08:45:48;13.20;99.90
24226;DHT22;51462;51.422;5.514;2023-04-19T08:48:14;13.20;99.90
24226;DHT22;51462;51.422;5.514;2023-04-19T08:50:41;13.20;99.90
24226;DHT22;51462;51.422;5.514;2023-04-19T08:53:08;13.30;99.90
24226;DHT22;51462;51.422;5.514;2023-04-19T08:55:34;13.30;99.90
24226;DHT22;51462;51.422;5.514;2023-04-19T08:58:03;13.30;99.90
24226;DHT22;51462;51.422;5.514;2023-04-19T09:00:28;13.30;99.90
24226;DHT22;51462;51.422;5.514;2023-04-19T09:02:54;13.40;99.90
24226;DHT22;51462;51.422;5.514;2023-04-19T09:05:20;13.40;99.90
24226;DHT22;51462;51.422;5.514;2023-04-19T09:07:46;13.40;99.90
24226;DHT22;51462;51.422;5.514;2023-04-19T09:10:14;13.40;99.90
24226;DHT22;51462;51.422;5.514;2023-04-19T09:12:41;13.40;99.90
24226;DHT22;51462;51.422;5.514;2023-04-19T09:15:08;13.50;99.90
24226;DHT22;51462;51.422;5.514;2023-04-19T09:17:35;13.50;99.90
24226;DHT22;51462;51.422;5.514;2023-04-19T09:20:01;13.50;99.90
24226;DHT22;51462;51.422;5.514;2023-04-19T09:22:27;13.50;99.90
24226;DHT22;51462;51.422;5.514;2023-04-19T09:24:53;13.60;99.90
24226;DHT22;51462;51.422;5.514;2023-04-19T09:27:26;13.60;99.90
24226;DHT22;51462;51.422;5.514;2023-04-19T09:29:53;13.60;99.90
24226;DHT22;51462;51.422;5.514;2023-04-19T09:32:20;13.70;99.90
24226;DHT22;51462;51.422;5.514;2023-04-19T09:34:56;13.70;99.90
24226;DHT22;51462;51.422;5.514;2023-04-19T09:37:22;13.70;99.90
24226;DHT22;51462;51.422;5.514;2023-04-19T09:39:48;13.70;99.90
24226;DHT22;51462;51.422;5.514;2023-04-19T09:42:14;13.70;99.90
24226;DHT22;51462;51.422;5.514;2023-04-19T09:44:41;13.80;99.90
24226;DHT22;51462;51.422;5.514;2023-04-19T09:47:26;13.80;99.90
24226;DHT22;51462;51.422;5.514;2023-04-19T09:50:10;13.80;99.90
24226;DHT22;51462;51.422;5.514;2023-04-19T09:52:36;13.90;99.90
24226;DHT22;51462;51.422;5.514;2023-04-19T09:55:04;13.90;99.90
24226;DHT22;51462;51.422;5.514;2023-04-19T09:57:31;13.90;99.90
24226;DHT22;51462;51.422;5.514;2023-04-19T10:00:00;13.90;99.90
24226;DHT22;51462;51.422;5.514;2023-04-19T10:02:30;14.00;99.90
24226;DHT22;51462;51.422;5.514;2023-04-19T10:04:57;14.00;99.90
24226;DHT22;51462;51.422;5.514;2023-04-19T10:07:24;14.00;99.90
24226;DHT22;51462;51.422;5.514;2023-04-19T10:09:50;14.00;99.90
24226;DHT22;51462;51.422;5.514;2023-04-19T10:12:19;14.00;99.90
24226;DHT22;51462;51.422;5.514;2023-04-19T10:14:45;14.10;99.90
24226;DHT22;51462;51.422;5.514;2023-04-19T10:17:12;14.10;99.90
24226;DHT22;51462;51.422;5.514;2023-04-19T10:19:39;14.10;99.90
24226;DHT22;51462;51.422;5.514;2023-04-19T10:22:05;14.10;99.90
24226;DHT22;51462;51.422;5.514;2023-04-19T10:24:32;14.20;99.90
24226;DHT22;51462;51.422;5.514;2023-04-19T10:27:08;14.20;99.90
24226;DHT22;51462;51.422;5.514;2023-04-19T10:32:16;14.20;99.90
24226;DHT22;51462;51.422;5.514;2023-04-19T10:34:42;14.30;99.90
24226;DHT22;51462;51.422;5.514;2023-04-19T10:37:12;14.40;99.90
24226;DHT22;51462;51.422;5.514;2023-04-19T10:39:39;14.40;99.90
24226;DHT22;51462;51.422;5.514;2023-04-19T10:42:05;14.40;99.90
24226;DHT22;51462;51.422;5.514;2023-04-19T10:44:31;14.40;99.90
24226;DHT22;51462;51.422;5.514;2023-04-19T10:46:58;14.50;99.90
24226;DHT22;51462;51.422;5.514;2023-04-19T10:49:27;14.50;99.90
24226;DHT22;51462;51.422;5.514;2023-04-19T10:51:53;14.50;99.90
24226;DHT22;51462;51.422;5.514;2023-04-19T10:54:34;14.50;99.90
24226;DHT22;51462;51.422;5.514;2023-04-19T10:57:07;14.60;99.90
24226;DHT22;51462;51.422;5.514;2023-04-19T10:59:34;14.60;99.90
24226;DHT22;51462;51.422;5.514;2023-04-19T11:04:58;14.70;99.90
24226;DHT22;51462;51.422;5.514;2023-04-19T11:07:24;14.80;99.90
24226;DHT22;51462;51.422;5.514;2023-04-19T11:09:51;14.80;99.90
24226;DHT22;51462;51.422;5.514;2023-04-19T11:12:18;14.80;99.90
24226;DHT22;51462;51.422;5.514;2023-04-19T11:14:50;15.00;99.90
24226;DHT22;51462;51.422;5.514;2023-04-19T11:19:44;15.00;99.90
24226;DHT22;51462;51.422;5.514;2023-04-19T11:22:10;15.10;99.90
24226;DHT22;51462;51.422;5.514;2023-04-19T11:24:36;15.20;99.90
24226;DHT22;51462;51.422;5.514;2023-04-19T11:27:06;15.30;99.90
24226;DHT22;51462;51.422;5.514;2023-04-19T11:29:32;15.30;99.90
24226;DHT22;51462;51.422;5.514;2023-04-19T11:31:59;15.30;99.90
24226;DHT22;51462;51.422;5.514;2023-04-19T11:34:24;15.30;99.90
24226;DHT22;51462;51.422;5.514;2023-04-19T11:36:51;15.30;99.90
24226;DHT22;51462;51.422;5.514;2023-04-19T11:39:17;15.30;99.90
24226;DHT22;51462;51.422;5.514;2023-04-19T11:41:43;15.50;99.90
24226;DHT22;51462;51.422;5.514;2023-04-19T11:44:16;15.60;99.90
24226;DHT22;51462;51.422;5.514;2023-04-19T11:46:56;15.30;99.90
24226;DHT22;51462;51.422;5.514;2023-04-19T11:49:30;15.50;99.90
24226;DHT22;51462;51.422;5.514;2023-04-19T11:51:57;15.60;99.90
24226;DHT22;51462;51.422;5.514;2023-04-19T11:54:23;15.80;99.90
24226;DHT22;51462;51.422;5.514;2023-04-19T11:57:06;15.80;99.90
24226;DHT22;51462;51.422;5.514;2023-04-19T11:59:34;15.70;99.90
24226;DHT22;51462;51.422;5.514;2023-04-19T12:02:08;15.60;99.90
24226;DHT22;51462;51.422;5.514;2023-04-19T12:04:33;15.60;99.90
24226;DHT22;51462;51.422;5.514;2023-04-19T12:07:00;15.90;99.90
24226;DHT22;51462;51.422;5.514;2023-04-19T12:09:26;16.00;99.90
24226;DHT22;51462;51.422;5.514;2023-04-19T12:11:52;16.20;99.90
24226;DHT22;51462;51.422;5.514;2023-04-19T12:14:19;16.00;99.90
24226;DHT22;51462;51.422;5.514;2023-04-19T12:19:42;16.00;99.90
24226;DHT22;51462;51.422;5.514;2023-04-19T12:22:09;16.20;99.90
24226;DHT22;51462;51.422;5.514;2023-04-19T12:24:36;16.40;99.90
24226;DHT22;51462;51.422;5.514;2023-04-19T12:27:02;16.60;99.90
24226;DHT22;51462;51.422;5.514;2023-04-19T12:29:28;16.40;99.90
24226;DHT22;51462;51.422;5.514;2023-04-19T12:31:53;16.40;99.90
24226;DHT22;51462;51.422;5.514;2023-04-19T12:34:19;16.60;99.90
24226;DHT22;51462;51.422;5.514;2023-04-19T12:36:45;16.80;99.90
24226;DHT22;51462;51.422;5.514;2023-04-19T12:39:10;16.50;99.90
24226;DHT22;51462;51.422;5.514;2023-04-19T12:41:36;16.30;99.90
24226;DHT22;51462;51.422;5.514;2023-04-19T12:44:01;16.50;99.90
24226;DHT22;51462;51.422;5.514;2023-04-19T12:46:27;16.60;99.90
24226;DHT22;51462;51.422;5.514;2023-04-19T12:48:52;16.70;99.90
24226;DHT22;51462;51.422;5.514;2023-04-19T12:51:18;16.70;99.90
24226;DHT22;51462;51.422;5.514;2023-04-19T12:53:48;16.80;99.90
24226;DHT22;51462;51.422;5.514;2023-04-19T12:56:14;17.00;99.90
24226;DHT22;51462;51.422;5.514;2023-04-19T12:58:40;17.30;99.90
24226;DHT22;51462;51.422;5.514;2023-04-19T13:01:06;17.40;99.90
24226;DHT22;51462;51.422;5.514;2023-04-19T13:03:31;17.90;99.90
24226;DHT22;51462;51.422;5.514;2023-04-19T13:06:00;17.60;99.90
24226;DHT22;51462;51.422;5.514;2023-04-19T13:08:26;17.70;99.90
24226;DHT22;51462;51.422;5.514;2023-04-19T13:10:52;17.70;99.90
24226;DHT22;51462;51.422;5.514;2023-04-19T13:13:18;17.80;99.90
24226;DHT22;51462;51.422;5.514;2023-04-19T13:15:43;17.90;99.90
24226;DHT22;51462;51.422;5.514;2023-04-19T13:18:10;18.30;99.90
24226;DHT22;51462;51.422;5.514;2023-04-19T13:20:35;18.70;99.90
24226;DHT22;51462;51.422;5.514;2023-04-19T13:23:01;18.60;99.90
24226;DHT22;51462;51.422;5.514;2023-04-19T13:25:26;18.80;99.90
24226;DHT22;51462;51.422;5.514;2023-04-19T13:27:52;18.70;99.90
24226;DHT22;51462;51.422;5.514;2023-04-19T13:30:17;18.50;99.90
24226;DHT22;51462;51.422;5.514;2023-04-19T13:32:43;18.90;99.90
24226;DHT22;51462;51.422;5.514;2023-04-19T13:35:08;19.00;99.90
24226;DHT22;51462;51.422;5.514;2023-04-19T13:37:34;19.00;99.90
24226;DHT22;51462;51.422;5.514;2023-04-19T13:40:00;19.60;99.90
24226;DHT22;51462;51.422;5.514;2023-04-19T13:42:25;20.00;95.70
24226;DHT22;51462;51.422;5.514;2023-04-19T13:44:53;20.40;93.40
24226;DHT22;51462;51.422;5.514;2023-04-19T13:47:18;20.50;90.80
24226;DHT22;51462;51.422;5.514;2023-04-19T13:49:44;20.60;90.40
24226;DHT22;51462;51.422;5.514;2023-04-19T13:52:10;21.20;87.40
24226;DHT22;51462;51.422;5.514;2023-04-19T13:54:35;21.80;83.10
24226;DHT22;51462;51.422;5.514;2023-04-19T13:57:01;21.90;78.60
24226;DHT22;51462;51.422;5.514;2023-04-19T13:59:27;22.70;80.50
24226;DHT22;51462;51.422;5.514;2023-04-19T14:01:54;23.80;79.80
24226;DHT22;51462;51.422;5.514;2023-04-19T14:04:20;24.00;79.80
24226;DHT22;51462;51.422;5.514;2023-04-19T14:06:46;24.50;74.10
24226;DHT22;51462;51.422;5.514;2023-04-19T14:09:12;24.50;72.00
24226;DHT22;51462;51.422;5.514;2023-04-19T14:11:38;24.50;76.80
24226;DHT22;51462;51.422;5.514;2023-04-19T14:14:03;24.60;70.90
24226;DHT22;51462;51.422;5.514;2023-04-19T14:16:29;24.80;69.40
24226;DHT22;51462;51.422;5.514;2023-04-19T14:18:54;25.40;66.80
24226;DHT22;51462;51.422;5.514;2023-04-19T14:21:20;25.50;63.10
24226;DHT22;51462;51.422;5.514;2023-04-19T14:23:46;25.40;66.30
24226;DHT22;51462;51.422;5.514;2023-04-19T14:26:11;25.10;70.10
24226;DHT22;51462;51.422;5.514;2023-04-19T14:28:37;24.90;66.50
24226;DHT22;51462;51.422;5.514;2023-04-19T14:31:02;25.10;71.70
24226;DHT22;51462;51.422;5.514;2023-04-19T14:33:28;24.80;68.30
24226;DHT22;51462;51.422;5.514;2023-04-19T14:35:54;24.40;63.60
24226;DHT22;51462;51.422;5.514;2023-04-19T14:38:19;24.50;66.30
24226;DHT22;51462;51.422;5.514;2023-04-19T14:40:45;23.90;64.60
24226;DHT22;51462;51.422;5.514;2023-04-19T14:43:13;23.50;61.70
24226;DHT22;51462;51.422;5.514;2023-04-19T14:45:40;23.00;75.50
24226;DHT22;51462;51.422;5.514;2023-04-19T14:48:05;22.70;75.90
24226;DHT22;51462;51.422;5.514;2023-04-19T14:50:31;22.10;75.40
24226;DHT22;51462;51.422;5.514;2023-04-19T14:52:56;22.00;84.30
24226;DHT22;51462;51.422;5.514;2023-04-19T14:55:22;21.50;81.10
24226;DHT22;51462;51.422;5.514;2023-04-19T14:57:49;21.20;78.90
24226;DHT22;51462;51.422;5.514;2023-04-19T15:00:15;21.10;89.70
24226;DHT22;51462;51.422;5.514;2023-04-19T15:02:40;21.10;90.50
24226;DHT22;51462;51.422;5.514;2023-04-19T15:05:06;21.20;90.90
24226;DHT22;51462;51.422;5.514;2023-04-19T15:07:32;21.40;88.30
24226;DHT22;51462;51.422;5.514;2023-04-19T15:09:57;21.50;89.30
24226;DHT22;51462;51.422;5.514;2023-04-19T15:12:23;21.40;91.70
24226;DHT22;51462;51.422;5.514;2023-04-19T15:14:48;21.30;92.20
24226;DHT22;51462;51.422;5.514;2023-04-19T15:17:14;21.60;90.30
24226;DHT22;51462;51.422;5.514;2023-04-19T15:19:40;21.20;89.20
24226;DHT22;51462;51.422;5.514;2023-04-19T15:22:05;20.70;94.20
24226;DHT22;51462;51.422;5.514;2023-04-19T15:24:33;20.80;90.30
24226;DHT22;51462;51.422;5.514;2023-04-19T15:26:59;20.70;94.70
24226;DHT22;51462;51.422;5.514;2023-04-19T15:29:24;20.90;92.50
24226;DHT22;51462;51.422;5.514;2023-04-19T15:31:50;20.90;95.10
24226;DHT22;51462;51.422;5.514;2023-04-19T15:34:16;21.10;95.30